Time;durP1;ratioP1;P1;durP2;ratioP2;P2;SDS_P1;SDS_P2;PMS_P1;PMS_P2;Temp;Humidity;BMP_temperature;BMP_pressure;BME280_temperature;BME280_humidity;BME280_pressure;Samples;Min_cycle;Max_cycle;Signal;HPM_P1;HPM_P2
2022/04/18 00:00:51;;;;;;;;;;;;;;;19.01;57.36;99866.78;2084216;28;20360;-61
2022/04/18 00:01:52;;;;;;;;;;;;;;;19.00;57.40;99874.09;2085699;28;19943;-61
2022/04/18 00:02:52;;;;;;;;;;;;;;;18.98;57.51;99869.81;2098882;27;19926;-61
2022/04/18 00:03:54;;;;;;;;;;;;;;;19.00;57.37;99867.78;2099292;28;20585;-61
2022/04/18 00:04:54;;;;;;;;;;;;;;;18.99;57.32;99871.56;2098541;28;19959;-61
2022/04/18 00:05:55;;;;;;;;;;;;;;;18.99;57.27;99866.09;2095407;28;20008;-61
2022/04/18 00:06:56;;;;;;;;;;;;;;;18.98;57.39;99880.75;2081751;28;19916;-61
2022/04/18 00:07:56;;;;;;;;;;;;;;;18.97;57.30;99868.13;2099540;28;19911;-62
2022/04/18 00:08:57;;;;;;;;;;;;;;;18.98;57.31;99869.81;2101688;28;19955;-62
2022/04/18 00:09:57;;;;;;;;;;;;;;;18.98;57.30;99873.41;2082982;28;20084;-61
2022/04/18 00:10:57;;;;;;;;;;;;;;;18.98;57.34;99872.56;2082555;28;20409;-62
2022/04/18 00:11:58;;;;;;;;;;;;;;;18.98;57.26;99870.66;2083109;28;20076;-60
2022/04/18 00:12:58;;;;;;;;;;;;;;;18.99;57.49;99871.56;2084345;28;19920;-61
2022/04/18 00:13:59;;;;;;;;;;;;;;;18.98;57.53;99867.09;2085170;28;20102;-61
2022/04/18 00:14:59;;;;;;;;;;;;;;;18.98;57.47;99876.13;2083076;28;20163;-56
2022/04/18 00:15:59;;;;;;;;;;;;;;;18.98;57.50;99875.28;2085334;28;20104;-56
2022/04/18 00:17:00;;;;;;;;;;;;;;;18.98;57.66;99869.81;2085747;28;20022;-55
2022/04/18 00:18:00;;;;;;;;;;;;;;;19.00;57.85;99867.78;2082691;28;20416;-56
2022/04/18 00:19:00;;;;;;;;;;;;;;;19.00;57.71;99873.25;2085268;28;20517;-55
2022/04/18 00:20:01;;;;;;;;;;;;;;;19.00;57.70;99879.56;2084146;28;20244;-56
2022/04/18 00:21:01;;;;;;;;;;;;;;;19.01;57.55;99872.22;2080360;28;20001;-57
2022/04/18 00:22:02;;;;;;;;;;;;;;;19.00;57.53;99868.66;2085454;28;20132;-54
2022/04/18 00:23:03;;;;;;;;;;;;;;;19.00;57.56;99868.66;2084837;28;20258;-55
2022/04/18 00:24:03;;;;;;;;;;;;;;;19.00;57.46;99870.53;2084286;28;20258;-55
2022/04/18 00:25:04;;;;;;;;;;;;;;;18.99;57.39;99866.94;2079023;28;20351;-56
2022/04/18 00:26:04;;;;;;;;;;;;;;;19.00;57.31;99878.72;2081896;28;20322;-56
2022/04/18 00:27:04;;;;;;;;;;;;;;;18.98;57.18;99873.41;2100653;28;19920;-56
2022/04/18 00:28:05;;;;;;;;;;;;;;;18.99;57.28;99872.41;2099691;27;19945;-56
2022/04/18 00:29:06;;;;;;;;;;;;;;;18.98;57.20;99880.75;2084210;28;19937;-56
2022/04/18 00:30:06;;;;;;;;;;;;;;;18.97;57.24;99871.69;2082102;28;20083;-55
2022/04/18 00:31:06;;;;;;;;;;;;;;;18.97;57.24;99874.44;2084337;28;19920;-56
2022/04/18 00:32:07;;;;;;;;;;;;;;;18.97;57.46;99873.56;2084891;28;20374;-55
2022/04/18 00:33:09;;;;;;;;;;;;;;;18.96;57.33;99871.84;2083939;28;20902;-56
2022/04/18 00:34:09;;;;;;;;;;;;;;;18.97;57.22;99873.56;2085729;28;19921;-56
2022/04/18 00:35:10;;;;;;;;;;;;;;;18.97;57.30;99873.56;2083310;28;19926;-56
2022/04/18 00:36:10;;;;;;;;;;;;;;;18.96;57.33;99872.72;2082916;28;19912;-56
2022/04/18 00:37:10;;;;;;;;;;;;;;;18.94;57.32;99874.75;2085207;28;19912;-56
2022/04/18 00:38:10;;;;;;;;;;;;;;;18.94;57.35;99876.63;2081692;28;20022;-56
2022/04/18 00:39:11;;;;;;;;;;;;;;;18.95;57.40;99878.31;2086081;28;19909;-56
2022/04/18 00:40:12;;;;;;;;;;;;;;;18.96;57.44;99877.31;2082128;28;19920;-56
2022/04/18 00:41:12;;;;;;;;;;;;;;;18.95;57.31;99867.41;2082818;28;20216;-56
2022/04/18 00:42:13;;;;;;;;;;;;;;;18.96;57.36;99867.25;2085198;28;19962;-56
2022/04/18 00:43:13;;;;;;;;;;;;;;;18.97;57.31;99865.38;2082228;28;19971;-56
2022/04/18 00:44:14;;;;;;;;;;;;;;;18.96;57.49;99872.72;2083464;28;19916;-56
2022/04/18 00:45:15;;;;;;;;;;;;;;;18.98;57.49;99867.09;2085920;27;20261;-55
2022/04/18 00:46:17;;;;;;;;;;;;;;;18.97;57.50;99868.13;2082057;28;19954;-56
2022/04/18 00:47:17;;;;;;;;;;;;;;;18.96;57.32;99866.38;2085989;28;19931;-56
2022/04/18 00:48:17;;;;;;;;;;;;;;;18.97;57.49;99873.56;2081655;28;19917;-56
2022/04/18 00:49:18;;;;;;;;;;;;;;;18.97;57.55;99862.66;2086476;28;20425;-56
2022/04/18 00:50:18;;;;;;;;;;;;;;;18.97;57.46;99858.03;2083692;28;20354;-56
2022/04/18 00:51:23;;;;;;;;;;;;;;;18.97;57.46;99868.13;2082815;28;19960;-56
2022/04/18 00:52:25;;;;;;;;;;;;;;;18.98;57.50;99864.34;2084766;28;19921;-53
2022/04/18 00:53:26;;;;;;;;;;;;;;;18.98;57.42;99858.88;2082024;28;19928;-47
2022/04/18 00:54:26;;;;;;;;;;;;;;;18.98;57.43;99864.34;2083977;28;20290;-49
2022/04/18 00:55:28;;;;;;;;;;;;;;;18.97;57.32;99866.22;2082160;28;19924;-49
2022/04/18 00:56:29;;;;;;;;;;;;;;;18.97;57.00;99866.22;2083942;28;19924;-47
2022/04/18 00:57:30;;;;;;;;;;;;;;;18.93;56.84;99861.22;2076130;28;19921;-47
2022/04/18 00:58:31;;;;;;;;;;;;;;;18.93;56.88;99861.22;2081191;28;19928;-51
2022/04/18 00:59:32;;;;;;;;;;;;;;;18.93;56.89;99861.22;2081368;28;19924;-47
2022/04/18 01:00:32;;;;;;;;;;;;;;;18.90;56.84;99856.09;2082052;28;19943;-46
2022/04/18 01:01:32;;;;;;;;;;;;;;;18.90;56.82;99867.00;2079954;28;20337;-48
2022/04/18 01:02:33;;;;;;;;;;;;;;;18.88;56.90;99863.56;2087597;28;20354;-47
2022/04/18 01:03:33;;;;;;;;;;;;;;;18.87;56.89;99870.91;2082120;28;20562;-48
2022/04/18 01:04:33;;;;;;;;;;;;;;;18.86;56.95;99860.97;2084554;28;20536;-47
2022/04/18 01:05:34;;;;;;;;;;;;;;;18.87;57.03;99870.06;2084115;28;19916;-47
2022/04/18 01:06:35;;;;;;;;;;;;;;;18.85;57.07;99864.75;2090208;28;20193;-48
2022/04/18 01:07:36;;;;;;;;;;;;;;;18.84;57.06;99863.88;2079830;28;19951;-47
2022/04/18 01:08:36;;;;;;;;;;;;;;;18.84;57.08;99863.88;2081355;28;20327;-46
2022/04/18 01:09:37;;;;;;;;;;;;;;;18.83;57.11;99869.50;2078119;28;20290;-47
2022/04/18 01:10:37;;;;;;;;;;;;;;;18.82;57.06;99865.91;2080104;28;19921;-47
2022/04/18 01:11:38;;;;;;;;;;;;;;;18.81;57.02;99866.94;2084254;28;19921;-47
2022/04/18 01:12:40;;;;;;;;;;;;;;;18.81;57.04;99864.19;2082780;28;19924;-48
2022/04/18 01:13:42;;;;;;;;;;;;;;;18.81;57.08;99866.03;2084412;28;19925;-47
2022/04/18 01:14:46;;;;;;;;;;;;;;;18.81;57.11;99864.19;2082822;28;19924;-47
2022/04/18 01:15:50;;;;;;;;;;;;;;;18.81;57.12;99863.31;2079518;28;20169;-50
2022/04/18 01:16:51;;;;;;;;;;;;;;;18.81;57.20;99866.03;2083374;28;20207;-48
2022/04/18 01:17:52;;;;;;;;;;;;;;;18.80;57.21;99867.94;2096951;28;20146;-47
2022/04/18 01:18:52;;;;;;;;;;;;;;;18.80;57.20;99872.53;2096089;28;19931;-47
2022/04/18 01:19:53;;;;;;;;;;;;;;;18.80;57.31;99872.53;2078606;28;20378;-48
2022/04/18 01:20:53;;;;;;;;;;;;;;;18.81;57.03;99869.66;2084693;28;19940;-47
2022/04/18 01:21:54;;;;;;;;;;;;;;;18.80;57.09;99872.53;2079660;28;19913;-46
2022/04/18 01:22:54;;;;;;;;;;;;;;;18.81;57.14;99866.94;2080115;28;19920;-48
2022/04/18 01:23:57;;;;;;;;;;;;;;;18.81;57.07;99877.84;2084506;28;19920;-47
2022/04/18 01:29:15;;;;;;;;;;;;;;;18.78;57.23;99864.47;2065726;28;19976;-46
2022/04/18 01:30:15;;;;;;;;;;;;;;;18.78;57.27;99869.94;2070124;28;19921;-47
2022/04/18 01:31:16;;;;;;;;;;;;;;;18.79;57.27;99870.78;2061262;28;20326;-48
2022/04/18 01:32:16;;;;;;;;;;;;;;;18.78;57.43;99869.94;2067082;28;19920;-48
2022/04/18 01:33:16;;;;;;;;;;;;;;;18.78;57.32;99869.94;2065777;28;20320;-49
2022/04/18 01:34:16;;;;;;;;;;;;;;;18.77;57.40;99862.78;2079269;28;19995;-48
2022/04/18 01:35:17;;;;;;;;;;;;;;;18.77;57.34;99868.25;2081883;28;19977;-48
2022/04/18 01:36:17;;;;;;;;;;;;;;;18.76;57.44;99868.38;2083613;28;20669;-47
2022/04/18 01:37:17;;;;;;;;;;;;;;;18.76;57.30;99868.38;2085900;28;19986;-47
2022/04/18 01:38:18;;;;;;;;;;;;;;;18.76;57.53;99866.50;2083052;28;19921;-47
2022/04/18 01:39:18;;;;;;;;;;;;;;;18.77;57.51;99872.84;2083653;28;20270;-50
2022/04/18 01:40:18;;;;;;;;;;;;;;;18.76;57.46;99871.97;2083611;28;20204;-47
2022/04/18 01:41:19;;;;;;;;;;;;;;;18.75;57.50;99875.69;2083635;28;19947;-47
2022/04/18 01:42:20;;;;;;;;;;;;;;;18.76;57.59;99876.56;2084835;28;20541;-48
2022/04/18 01:43:20;;;;;;;;;;;;;;;18.75;57.46;99875.69;2082099;28;19992;-47
2022/04/18 01:44:21;;;;;;;;;;;;;;;18.75;57.60;99872.97;2080975;28;20334;-47
2022/04/18 01:45:21;;;;;;;;;;;;;;;18.75;57.38;99878.41;2082587;28;19920;-48
2022/04/18 01:46:22;;;;;;;;;;;;;;;18.75;57.43;99870.22;2083814;28;20358;-46
2022/04/18 01:47:22;;;;;;;;;;;;;;;18.75;57.48;99864.75;2087964;28;20206;-48
2022/04/18 01:48:23;;;;;;;;;;;;;;;18.75;57.43;99867.50;2092312;28;19928;-49
2022/04/18 01:49:23;;;;;;;;;;;;;;;18.76;57.44;99877.44;2099184;28;20668;-47
2022/04/18 01:50:23;;;;;;;;;;;;;;;18.76;57.33;99868.38;2082100;28;19963;-47
2022/04/18 01:51:23;;;;;;;;;;;;;;;18.76;57.37;99877.44;2080315;28;20539;-48
2022/04/18 01:52:24;;;;;;;;;;;;;;;18.75;57.37;99875.69;2081735;28;20315;-46
2022/04/18 01:53:25;;;;;;;;;;;;;;;18.75;57.34;99875.69;2082113;28;19978;-47
2022/04/18 01:54:26;;;;;;;;;;;;;;;18.75;57.37;99883.88;2083185;28;19923;-47
2022/04/18 01:55:26;;;;;;;;;;;;;;;18.75;57.44;99883.88;2080901;28;19916;-48
2022/04/18 01:56:27;;;;;;;;;;;;;;;18.75;57.42;99875.69;2081885;28;20454;-46
2022/04/18 01:57:27;;;;;;;;;;;;;;;18.76;57.39;99879.31;2083815;28;19917;-47
2022/04/18 01:58:27;;;;;;;;;;;;;;;18.74;57.38;99873.97;2081786;28;19913;-49
2022/04/18 01:59:27;;;;;;;;;;;;;;;18.75;57.50;99878.41;2081348;28;19916;-47
2022/04/18 02:00:28;;;;;;;;;;;;;;;18.74;57.44;99870.38;2084329;28;20335;-49
2022/04/18 02:01:28;;;;;;;;;;;;;;;18.74;57.44;99879.44;2082649;28;19997;-46
2022/04/18 02:02:28;;;;;;;;;;;;;;;18.72;57.62;99873.28;2084284;28;19913;-48
2022/04/18 02:03:29;;;;;;;;;;;;;;;18.74;57.63;99878.56;2084304;28;19905;-48
2022/04/18 02:04:29;;;;;;;;;;;;;;;18.73;57.65;99872.25;2085480;28;19973;-47
2022/04/18 02:05:29;;;;;;;;;;;;;;;18.72;57.67;99870.53;2084367;28;19917;-48
2022/04/18 02:06:30;;;;;;;;;;;;;;;18.72;57.65;99867.81;2082490;28;19927;-46
2022/04/18 02:07:30;;;;;;;;;;;;;;;18.72;57.76;99875.16;2083040;28;19926;-47
2022/04/18 02:08:30;;;;;;;;;;;;;;;18.72;57.81;99876.00;2083030;28;19916;-46
2022/04/18 02:09:30;;;;;;;;;;;;;;;18.71;57.78;99873.41;2081059;28;19959;-47
2022/04/18 02:10:31;;;;;;;;;;;;;;;18.70;57.79;99878.03;2084046;28;20360;-47
2022/04/18 02:11:31;;;;;;;;;;;;;;;18.70;57.92;99874.44;2083188;28;19939;-46
2022/04/18 02:12:32;;;;;;;;;;;;;;;18.69;57.82;99868.13;2096232;28;20237;-48
2022/04/18 02:13:33;;;;;;;;;;;;;;;18.69;57.91;99869.97;2097310;27;19962;-49
2022/04/18 02:14:33;;;;;;;;;;;;;;;18.68;57.83;99874.56;2082154;28;19934;-48
2022/04/18 02:15:34;;;;;;;;;;;;;;;18.69;57.85;99873.59;2084832;28;19916;-48
2022/04/18 02:16:34;;;;;;;;;;;;;;;18.69;57.95;99875.44;2082503;28;19920;-47
2022/04/18 02:17:35;;;;;;;;;;;;;;;18.69;57.91;99869.97;2079726;28;19925;-46
2022/04/18 02:18:35;;;;;;;;;;;;;;;18.70;57.85;99883.47;2082216;28;19920;-48
2022/04/18 02:19:36;;;;;;;;;;;;;;;18.70;57.82;99878.03;2082253;28;20086;-46
2022/04/18 02:20:36;;;;;;;;;;;;;;;18.70;57.78;99878.03;2089453;28;19960;-47
2022/04/18 02:21:36;;;;;;;;;;;;;;;18.70;57.78;99867.09;2083103;28;20182;-49
2022/04/18 02:22:37;;;;;;;;;;;;;;;18.69;57.77;99865.41;2079757;28;20132;-47
2022/04/18 02:23:38;;;;;;;;;;;;;;;18.71;57.69;99859.75;2080220;28;19921;-46
2022/04/18 02:24:38;;;;;;;;;;;;;;;18.71;57.73;99865.22;2081605;28;19970;-47
2022/04/18 02:25:38;;;;;;;;;;;;;;;18.70;57.79;99861.63;2080559;28;20765;-48
2022/04/18 02:26:39;;;;;;;;;;;;;;;18.70;57.68;99858.91;2077451;28;20274;-47
2022/04/18 02:27:39;;;;;;;;;;;;;;;18.70;57.76;99858.91;2082074;28;20326;-48
2022/04/18 02:28:40;;;;;;;;;;;;;;;18.70;57.74;99858.06;2081648;28;19930;-48
2022/04/18 02:29:41;;;;;;;;;;;;;;;18.69;57.90;99870.84;2084195;28;19913;-47
2022/04/18 02:30:42;;;;;;;;;;;;;;;18.68;57.88;99860.94;2081411;28;19927;-47
2022/04/18 02:33:01;;;;;;;;;;;;;;;18.69;57.96;99865.41;2079901;28;20463;-46
2022/04/18 02:34:02;;;;;;;;;;;;;;;18.68;57.96;99869.13;2098848;28;20317;-47
2022/04/18 02:35:02;;;;;;;;;;;;;;;18.68;58.02;99869.13;2089429;27;19920;-47
2022/04/18 02:36:03;;;;;;;;;;;;;;;18.68;58.02;99871.00;2079685;28;19920;-47
2022/04/18 02:37:03;;;;;;;;;;;;;;;18.66;58.10;99860.22;2086616;28;19958;-48
2022/04/18 02:38:04;;;;;;;;;;;;;;;18.67;58.21;99861.94;2082392;28;20762;-46
2022/04/18 02:39:04;;;;;;;;;;;;;;;18.66;58.09;99860.22;2084719;28;19920;-47
2022/04/18 02:40:05;;;;;;;;;;;;;;;18.66;58.12;99854.75;2086586;28;19973;-48
2022/04/18 02:41:05;;;;;;;;;;;;;;;18.67;58.18;99867.41;2085328;28;19920;-46
2022/04/18 02:42:06;;;;;;;;;;;;;;;18.66;58.19;99864.81;2081239;28;20271;-46
2022/04/18 02:43:06;;;;;;;;;;;;;;;18.65;58.15;99861.25;2077867;28;19920;-48
2022/04/18 02:44:07;;;;;;;;;;;;;;;18.64;58.06;99862.22;2082866;28;20942;-48
2022/04/18 02:45:07;;;;;;;;;;;;;;;18.65;58.11;99858.50;2083843;28;20231;-46
2022/04/18 02:46:08;;;;;;;;;;;;;;;18.65;58.08;99847.59;2083097;28;20124;-47
2022/04/18 02:47:08;;;;;;;;;;;;;;;18.66;58.17;99860.22;2082539;28;20743;-47
2022/04/18 02:48:09;;;;;;;;;;;;;;;18.67;58.02;99863.78;2083397;28;20263;-46
2022/04/18 02:49:09;;;;;;;;;;;;;;;18.67;58.11;99861.06;2083355;28;19924;-47
2022/04/18 02:50:09;;;;;;;;;;;;;;;18.67;58.03;99866.53;2083510;28;19920;-46
2022/04/18 02:51:10;;;;;;;;;;;;;;;18.66;57.98;99860.22;2081738;28;19917;-46
2022/04/18 02:52:10;;;;;;;;;;;;;;;18.66;57.95;99852.03;2081724;28;19913;-46
2022/04/18 02:53:10;;;;;;;;;;;;;;;18.67;57.86;99866.53;2078933;28;20206;-46
2022/04/18 02:54:11;;;;;;;;;;;;;;;18.67;57.86;99867.41;2077711;28;20351;-46
2022/04/18 02:55:11;;;;;;;;;;;;;;;18.67;57.92;99863.78;2081991;28;19916;-47
2022/04/18 02:56:12;;;;;;;;;;;;;;;18.67;57.79;99858.34;2084168;28;19927;-47
2022/04/18 02:57:12;;;;;;;;;;;;;;;18.67;57.93;99861.94;2083586;28;20168;-47
2022/04/18 02:58:12;;;;;;;;;;;;;;;18.67;57.83;99859.22;2084884;28;19919;-46
2022/04/18 02:59:13;;;;;;;;;;;;;;;18.67;57.86;99861.94;2084916;28;20352;-46
2022/04/18 03:00:13;;;;;;;;;;;;;;;18.66;57.86;99851.16;2081046;28;20781;-46
2022/04/18 03:01:14;;;;;;;;;;;;;;;18.66;57.86;99857.47;2083005;28;19928;-46
2022/04/18 03:02:14;;;;;;;;;;;;;;;18.65;57.96;99853.06;2078424;28;20742;-47
2022/04/18 03:03:15;;;;;;;;;;;;;;;18.66;58.07;99853.91;2099494;27;19973;-48
2022/04/18 03:04:15;;;;;;;;;;;;;;;18.65;58.06;99847.59;2096442;27;19951;-47
2022/04/18 03:05:15;;;;;;;;;;;;;;;18.65;58.07;99853.06;2085212;28;19942;-47
2022/04/18 03:06:15;;;;;;;;;;;;;;;18.63;58.22;99844.16;2082863;28;19920;-47
2022/04/18 03:07:16;;;;;;;;;;;;;;;18.64;58.14;99845.84;2082185;28;20191;-47
2022/04/18 03:08:16;;;;;;;;;;;;;;;18.63;58.24;99849.59;2087537;28;20023;-47
2022/04/18 03:09:19;;;;;;;;;;;;;;;18.62;58.29;99853.38;2082420;28;19920;-47
2022/04/18 03:11:02;;;;;;;;;;;;;;;18.63;58.25;99844.16;2079065;28;20272;-46
2022/04/18 03:11:39;;;;;;;;;;;;;;;18.62;58.25;99853.38;2082423;28;20279;-47
2022/04/18 03:12:39;;;;;;;;;;;;;;;18.62;58.16;99850.63;2081824;28;19971;-47
2022/04/18 03:13:46;;;;;;;;;;;;;;;18.61;58.18;99852.47;2081363;28;19967;-50
2022/04/18 03:14:47;;;;;;;;;;;;;;;18.62;58.29;99853.38;2081696;28;19912;-53
2022/04/18 03:15:48;;;;;;;;;;;;;;;18.61;58.18;99846.16;2083921;28;19946;-54
2022/04/18 03:16:48;;;;;;;;;;;;;;;18.62;58.26;99853.38;2082594;28;20003;-47
2022/04/18 03:17:49;;;;;;;;;;;;;;;18.62;58.31;99847.91;2082708;28;20908;-47
2022/04/18 03:18:49;;;;;;;;;;;;;;;18.61;58.20;99847.03;2084501;28;19920;-49
2022/04/18 03:19:50;;;;;;;;;;;;;;;18.61;58.18;99852.47;2079067;28;20258;-53
2022/04/18 03:20:50;;;;;;;;;;;;;;;18.62;58.20;99847.91;2085614;28;20276;-51
2022/04/18 03:21:51;;;;;;;;;;;;;;;18.63;58.17;99849.59;2079598;28;19920;-51
2022/04/18 03:22:51;;;;;;;;;;;;;;;18.62;58.25;99843.28;2083144;28;19912;-53
2022/04/18 03:23:52;;;;;;;;;;;;;;;18.62;58.10;99851.47;2083099;28;19920;-51
2022/04/18 03:24:53;;;;;;;;;;;;;;;18.62;58.01;99853.38;2084528;28;19943;-47
2022/04/18 03:25:53;;;;;;;;;;;;;;;18.63;57.89;99850.47;2083163;28;19920;-48
2022/04/18 03:26:53;;;;;;;;;;;;;;;18.62;57.96;99846.03;2084167;28;19924;-47
2022/04/18 03:27:54;;;;;;;;;;;;;;;18.63;57.88;99849.59;2079291;28;19931;-47
2022/04/18 03:28:54;;;;;;;;;;;;;;;18.63;57.93;99846.88;2084986;28;19960;-50
2022/04/18 03:29:55;;;;;;;;;;;;;;;18.61;57.96;99847.03;2085051;28;19967;-46
2022/04/18 03:30:55;;;;;;;;;;;;;;;18.61;57.97;99847.03;2083676;28;19978;-49
2022/04/18 03:31:56;;;;;;;;;;;;;;;18.61;58.03;99846.16;2084210;28;20261;-48
2022/04/18 03:32:56;;;;;;;;;;;;;;;18.61;58.10;99851.63;2082078;28;19958;-47
2022/04/18 03:33:56;;;;;;;;;;;;;;;18.61;58.16;99852.47;2083619;28;19916;-46
2022/04/18 03:34:57;;;;;;;;;;;;;;;18.60;58.22;99849.91;2082082;28;20458;-47
2022/04/18 03:39:54;;;;;;;;;;;;;;;18.60;58.27;99852.66;2079143;28;19924;-47
2022/04/18 03:40:55;;;;;;;;;;;;;;;18.58;58.34;99847.34;2084308;28;21672;-46
2022/04/18 03:41:55;;;;;;;;;;;;;;;18.59;58.24;99854.53;2081725;28;19917;-47
2022/04/18 03:42:56;;;;;;;;;;;;;;;18.59;58.37;99848.19;2083345;28;19920;-49
2022/04/18 03:43:56;;;;;;;;;;;;;;;18.59;58.27;99856.38;2082720;28;19985;-47
2022/04/18 03:45:04;;;;;;;;;;;;;;;18.59;58.29;99849.06;2081773;28;19925;-47
2022/04/18 03:46:04;;;;;;;;;;;;;;;18.59;58.33;99849.06;2084124;28;20288;-46
2022/04/18 03:47:04;;;;;;;;;;;;;;;18.58;58.30;99850.06;2079183;28;19927;-48
2022/04/18 03:48:05;;;;;;;;;;;;;;;18.59;58.25;99848.19;2083708;28;20258;-48
2022/04/18 03:49:05;;;;;;;;;;;;;;;18.59;58.30;99848.19;2084651;28;19928;-47
2022/04/18 03:50:07;;;;;;;;;;;;;;;18.60;58.12;99852.66;2081327;28;20557;-50
2022/04/18 03:51:07;;;;;;;;;;;;;;;18.60;58.19;99844.47;2077487;28;19920;-49
2022/04/18 03:52:08;;;;;;;;;;;;;;;18.60;58.10;99850.78;2079123;28;20521;-48
2022/04/18 03:53:08;;;;;;;;;;;;;;;18.60;58.12;99844.47;2076234;28;20117;-48
2022/04/18 03:54:09;;;;;;;;;;;;;;;18.60;58.12;99847.19;2082193;28;19921;-47
2022/04/18 03:55:11;;;;;;;;;;;;;;;18.60;57.95;99841.72;2081005;28;20004;-47
2022/04/18 03:56:11;;;;;;;;;;;;;;;18.60;58.12;99839.84;2084696;28;19927;-46
2022/04/18 03:57:12;;;;;;;;;;;;;;;18.60;58.03;99839.00;2083314;28;19939;-47
2022/04/18 03:58:12;;;;;;;;;;;;;;;18.60;58.20;99844.47;2082129;28;19965;-48
2022/04/18 03:59:13;;;;;;;;;;;;;;;18.60;58.00;99839.84;2083490;28;19954;-46
2022/04/18 04:00:13;;;;;;;;;;;;;;;18.60;58.15;99842.59;2083774;28;20188;-49
2022/04/18 04:01:14;;;;;;;;;;;;;;;18.59;58.09;99842.72;2081053;28;20256;-48
2022/04/18 04:02:14;;;;;;;;;;;;;;;18.59;58.18;99850.91;2079902;28;19932;-47
2022/04/18 04:03:14;;;;;;;;;;;;;;;18.59;58.30;99840.88;2085307;28;20219;-47
2022/04/18 04:04:15;;;;;;;;;;;;;;;18.59;58.18;99848.19;2082952;28;19974;-47
2022/04/18 04:05:15;;;;;;;;;;;;;;;18.58;58.30;99841.88;2084846;28;19931;-47
2022/04/18 04:06:15;;;;;;;;;;;;;;;18.57;58.31;99837.44;2076171;28;20389;-47
2022/04/18 04:07:16;;;;;;;;;;;;;;;18.58;58.52;99846.47;2080894;28;20030;-48
2022/04/18 04:08:18;;;;;;;;;;;;;;;18.57;58.62;99839.28;2085115;28;20456;-48
2022/04/18 04:09:18;;;;;;;;;;;;;;;18.57;58.67;99844.75;2078408;28;20278;-47
2022/04/18 04:10:18;;;;;;;;;;;;;;;18.56;58.65;99849.34;2083741;28;19951;-46
2022/04/18 04:11:18;;;;;;;;;;;;;;;18.56;58.71;99837.59;2081096;28;19939;-47
2022/04/18 04:12:25;;;;;;;;;;;;;;;18.57;58.74;99844.75;2080494;28;19955;-48
2022/04/18 04:13:26;;;;;;;;;;;;;;;18.56;58.53;99843.88;2083490;28;20250;-48
2022/04/18 04:14:27;;;;;;;;;;;;;;;18.55;58.49;99836.72;2079778;28;19912;-51
2022/04/18 04:15:27;;;;;;;;;;;;;;;18.55;58.35;99842.19;2082394;28;19921;-50
2022/04/18 04:16:27;;;;;;;;;;;;;;;18.56;58.33;99841.16;2082765;28;20035;-52
2022/04/18 04:17:27;;;;;;;;;;;;;;;18.55;58.31;99836.72;2083852;28;19975;-50
2022/04/18 04:18:28;;;;;;;;;;;;;;;18.56;58.22;99837.59;2081790;28;20378;-51
2022/04/18 04:19:28;;;;;;;;;;;;;;;18.56;58.21;99837.59;2078580;28;20018;-51
2022/04/18 04:20:28;;;;;;;;;;;;;;;18.56;58.23;99845.78;2072756;28;20317;-50
2022/04/18 04:21:29;;;;;;;;;;;;;;;18.56;58.22;99843.03;2079316;28;19917;-52
2022/04/18 04:22:30;;;;;;;;;;;;;;;18.56;58.23;99846.63;2083269;28;20235;-52
2022/04/18 04:23:30;;;;;;;;;;;;;;;18.58;58.26;99846.47;2080037;28;20086;-50
2022/04/18 04:24:31;;;;;;;;;;;;;;;18.56;58.24;99838.44;2078139;28;19912;-50
2022/04/18 04:25:31;;;;;;;;;;;;;;;18.56;58.15;99843.88;2076381;28;19928;-50
2022/04/18 04:26:31;;;;;;;;;;;;;;;18.57;58.20;99839.28;2085045;28;19924;-54
2022/04/18 04:27:32;;;;;;;;;;;;;;;18.56;58.26;99837.59;2085962;28;20029;-52
2022/04/18 04:28:32;;;;;;;;;;;;;;;18.57;58.20;99850.19;2075080;28;20918;-52
2022/04/18 04:29:33;;;;;;;;;;;;;;;18.57;58.23;99845.63;2087602;28;19943;-52
2022/04/18 04:30:33;;;;;;;;;;;;;;;18.56;58.15;99851.22;2081152;28;19916;-49
2022/04/18 04:31:33;;;;;;;;;;;;;;;18.57;58.21;99847.47;2084529;28;21250;-50
2022/04/18 04:32:34;;;;;;;;;;;;;;;18.57;58.12;99847.47;2080077;28;19923;-50
2022/04/18 04:33:34;;;;;;;;;;;;;;;18.56;58.25;99848.50;2080320;28;19931;-52
2022/04/18 04:34:34;;;;;;;;;;;;;;;18.56;58.33;99845.78;2078286;28;20453;-52
2022/04/18 04:35:35;;;;;;;;;;;;;;;18.55;58.29;99844.06;2079494;28;19932;-50
2022/04/18 04:36:35;;;;;;;;;;;;;;;18.55;58.45;99844.91;2083969;28;20321;-51
2022/04/18 04:37:35;;;;;;;;;;;;;;;18.55;58.38;99844.06;2079581;28;21690;-53
2022/04/18 04:38:36;;;;;;;;;;;;;;;18.55;58.40;99847.66;2083386;28;19967;-51
2022/04/18 04:39:37;;;;;;;;;;;;;;;18.54;58.48;99851.38;2078188;28;19916;-49
2022/04/18 04:40:38;;;;;;;;;;;;;;;18.54;58.38;99845.06;2079448;28;19981;-51
2022/04/18 04:41:38;;;;;;;;;;;;;;;18.55;58.39;99849.53;2078032;28;20029;-52
2022/04/18 04:42:38;;;;;;;;;;;;;;;18.54;58.33;99848.63;2078508;28;19924;-51
2022/04/18 04:43:39;;;;;;;;;;;;;;;18.53;58.36;99849.66;2082963;28;20198;-52
2022/04/18 04:44:39;;;;;;;;;;;;;;;18.53;58.38;99843.34;2083504;28;19976;-50
2022/04/18 04:45:40;;;;;;;;;;;;;;;18.53;58.42;99838.75;2079205;28;20232;-52
2022/04/18 04:46:40;;;;;;;;;;;;;;;18.53;58.41;99844.19;2081860;28;19962;-50
2022/04/18 04:47:43;;;;;;;;;;;;;;;18.52;58.28;99842.50;2085607;28;19967;-53
2022/04/18 04:48:43;;;;;;;;;;;;;;;18.53;58.31;99854.28;2085807;28;19924;-52
2022/04/18 04:49:44;;;;;;;;;;;;;;;18.54;58.27;99843.19;2085985;28;19924;-53
2022/04/18 04:50:44;;;;;;;;;;;;;;;18.54;58.38;99845.91;2077025;28;19920;-54
2022/04/18 04:51:45;;;;;;;;;;;;;;;18.55;58.40;99852.25;2086455;28;19967;-50
2022/04/18 04:52:45;;;;;;;;;;;;;;;18.56;58.24;99862.16;2084063;28;20347;-52
2022/04/18 04:53:46;;;;;;;;;;;;;;;18.55;58.34;99852.25;2083470;28;19970;-50
2022/04/18 04:54:46;;;;;;;;;;;;;;;18.55;58.06;99854.97;2079519;28;19920;-52
2022/04/18 04:55:47;;;;;;;;;;;;;;;18.56;58.26;99856.69;2083859;28;20366;-54
2022/04/18 04:56:47;;;;;;;;;;;;;;;18.55;58.13;99855.84;2083290;28;20347;-50
2022/04/18 04:57:48;;;;;;;;;;;;;;;18.56;58.31;99849.34;2082582;28;19926;-54
2022/04/18 04:58:49;;;;;;;;;;;;;;;18.57;58.20;99861.13;2083304;28;19927;-51
2022/04/18 04:59:50;;;;;;;;;;;;;;;18.56;58.27;99854.81;2079764;28;20311;-52
2022/04/18 05:00:50;;;;;;;;;;;;;;;18.57;58.18;99861.13;2083745;28;20224;-51
2022/04/18 05:01:51;;;;;;;;;;;;;;;18.56;58.16;99859.41;2085989;28;19960;-53
2022/04/18 05:02:54;;;;;;;;;;;;;;;18.57;58.23;99858.38;2083124;28;19920;-50
2022/04/18 05:03:55;;;;;;;;;;;;;;;18.57;58.21;99861.13;2082369;28;20189;-53
2022/04/18 05:04:55;;;;;;;;;;;;;;;18.57;58.25;99866.59;2085974;28;19946;-50
2022/04/18 05:05:55;;;;;;;;;;;;;;;18.56;58.34;99875.78;2081023;28;19921;-50
2022/04/18 05:06:55;;;;;;;;;;;;;;;18.55;58.46;99863.16;2085110;28;19920;-53
2022/04/18 05:07:56;;;;;;;;;;;;;;;18.55;58.43;99866.75;2079815;28;20562;-52
2022/04/18 05:08:56;;;;;;;;;;;;;;;18.56;58.52;99867.59;2080925;28;20494;-49
2022/04/18 05:09:56;;;;;;;;;;;;;;;18.55;58.70;99860.44;2080301;28;20752;-50
2022/04/18 05:10:59;;;;;;;;;;;;;;;18.55;58.66;99871.34;2082011;28;19943;-49
2022/04/18 05:11:59;;;;;;;;;;;;;;;18.54;58.64;99856.81;2083517;28;19952;-50
2022/04/18 05:13:00;;;;;;;;;;;;;;;18.54;58.75;99861.44;2081139;28;19942;-49
2022/04/18 05:14:00;;;;;;;;;;;;;;;18.53;58.73;99859.72;2083118;28;20588;-50
2022/04/18 05:15:04;;;;;;;;;;;;;;;18.53;59.05;99865.19;2080552;28;19927;-53
2022/04/18 05:16:04;;;;;;;;;;;;;;;18.54;58.83;99855.97;2082679;28;20023;-52
2022/04/18 05:17:05;;;;;;;;;;;;;;;18.53;58.83;99868.78;2083848;28;19924;-53
2022/04/18 05:18:05;;;;;;;;;;;;;;;18.53;58.97;99870.66;2079863;28;19966;-51
2022/04/18 05:19:06;;;;;;;;;;;;;;;18.53;58.88;99870.66;2078747;28;20333;-52
2022/04/18 05:20:06;;;;;;;;;;;;;;;18.53;58.82;99867.91;2080262;28;20329;-50
2022/04/18 05:21:06;;;;;;;;;;;;;;;18.53;58.71;99870.66;2084369;28;19920;-50
2022/04/18 05:22:07;;;;;;;;;;;;;;;18.53;58.83;99867.91;2083316;28;19916;-52
2022/04/18 05:23:07;;;;;;;;;;;;;;;18.53;58.83;99871.50;2096509;28;19930;-50
2022/04/18 05:24:07;;;;;;;;;;;;;;;18.53;58.70;99865.19;2097044;28;20819;-53
2022/04/18 05:25:08;;;;;;;;;;;;;;;18.53;58.61;99866.03;2079006;28;20444;-49
2022/04/18 05:26:09;;;;;;;;;;;;;;;18.53;58.61;99863.31;2083875;28;20105;-51